sensor_id;sensor_type;location;lat;lon;timestamp;temperature;humidity
35894;DHT22;21994;48.204;16.516;2023-08-20T00:01:26;20.30;99.90
35894;DHT22;21994;48.204;16.516;2023-08-20T00:03:53;20.30;99.90
35894;DHT22;21994;48.204;16.516;2023-08-20T00:06:19;20.30;99.90
35894;DHT22;21994;48.204;16.516;2023-08-20T00:08:45;20.30;99.90
35894;DHT22;21994;48.204;16.516;2023-08-20T00:11:21;20.20;99.90
35894;DHT22;21994;48.204;16.516;2023-08-20T00:13:47;20.20;99.90
35894;DHT22;21994;48.204;16.516;2023-08-20T00:16:13;20.20;99.90
35894;DHT22;21994;48.204;16.516;2023-08-20T00:18:39;20.20;99.90
35894;DHT22;21994;48.204;16.516;2023-08-20T00:21:05;20.10;99.90
35894;DHT22;21994;48.204;16.516;2023-08-20T00:23:31;20.10;99.90
35894;DHT22;21994;48.204;16.516;2023-08-20T00:25:57;20.00;99.90
35894;DHT22;21994;48.204;16.516;2023-08-20T00:28:23;20.00;99.90
35894;DHT22;21994;48.204;16.516;2023-08-20T00:30:49;20.00;99.90
35894;DHT22;21994;48.204;16.516;2023-08-20T00:33:15;20.00;99.90
35894;DHT22;21994;48.204;16.516;2023-08-20T00:35:40;20.10;99.90
35894;DHT22;21994;48.204;16.516;2023-08-20T00:38:06;20.10;99.90
35894;DHT22;21994;48.204;16.516;2023-08-20T00:40:32;20.20;99.90
35894;DHT22;21994;48.204;16.516;2023-08-20T00:42:58;20.10;99.90
35894;DHT22;21994;48.204;16.516;2023-08-20T00:45:24;20.10;99.90
35894;DHT22;21994;48.204;16.516;2023-08-20T00:47:50;20.00;99.90
35894;DHT22;21994;48.204;16.516;2023-08-20T00:50:16;20.00;99.90
35894;DHT22;21994;48.204;16.516;2023-08-20T00:52:41;20.00;99.90
35894;DHT22;21994;48.204;16.516;2023-08-20T00:55:11;19.90;99.90
35894;DHT22;21994;48.204;16.516;2023-08-20T00:57:39;19.80;99.90
35894;DHT22;21994;48.204;16.516;2023-08-20T01:00:06;19.80;99.90
35894;DHT22;21994;48.204;16.516;2023-08-20T01:02:35;19.80;99.90
35894;DHT22;21994;48.204;16.516;2023-08-20T01:05:01;19.70;99.90
35894;DHT22;21994;48.204;16.516;2023-08-20T01:07:30;19.70;99.90
35894;DHT22;21994;48.204;16.516;2023-08-20T01:12:52;19.60;99.90
35894;DHT22;21994;48.204;16.516;2023-08-20T01:15:18;19.60;99.90
35894;DHT22;21994;48.204;16.516;2023-08-20T01:17:44;19.50;99.90
35894;DHT22;21994;48.204;16.516;2023-08-20T01:20:13;19.50;99.90
35894;DHT22;21994;48.204;16.516;2023-08-20T01:30:27;19.50;99.90
35894;DHT22;21994;48.204;16.516;2023-08-20T01:32:53;19.50;99.90
35894;DHT22;21994;48.204;16.516;2023-08-20T01:35:19;19.50;99.90
35894;DHT22;21994;48.204;16.516;2023-08-20T01:37:45;19.50;99.90
35894;DHT22;21994;48.204;16.516;2023-08-20T01:40:11;19.50;99.90
35894;DHT22;21994;48.204;16.516;2023-08-20T01:42:37;19.50;99.90
35894;DHT22;21994;48.204;16.516;2023-08-20T01:45:04;19.50;99.90
35894;DHT22;21994;48.204;16.516;2023-08-20T01:47:31;19.50;99.90
35894;DHT22;21994;48.204;16.516;2023-08-20T01:49:57;19.40;99.90
35894;DHT22;21994;48.204;16.516;2023-08-20T01:52:24;19.30;99.90
35894;DHT22;21994;48.204;16.516;2023-08-20T01:54:50;19.40;99.90
35894;DHT22;21994;48.204;16.516;2023-08-20T01:57:16;19.40;99.90
35894;DHT22;21994;48.204;16.516;2023-08-20T01:59:42;19.30;99.90
35894;DHT22;21994;48.204;16.516;2023-08-20T02:02:08;19.30;99.90
35894;DHT22;21994;48.204;16.516;2023-08-20T02:04:34;19.20;99.90
35894;DHT22;21994;48.204;16.516;2023-08-20T02:06:59;19.20;99.90
35894;DHT22;21994;48.204;16.516;2023-08-20T02:09:25;19.20;99.90
35894;DHT22;21994;48.204;16.516;2023-08-20T02:11:51;19.10;99.90
35894;DHT22;21994;48.204;16.516;2023-08-20T02:14:17;19.10;99.90
35894;DHT22;21994;48.204;16.516;2023-08-20T02:16:43;19.20;99.90
35894;DHT22;21994;48.204;16.516;2023-08-20T02:19:09;19.10;99.90
35894;DHT22;21994;48.204;16.516;2023-08-20T02:21:34;19.10;99.90
35894;DHT22;21994;48.204;16.516;2023-08-20T02:24:00;19.10;99.90
35894;DHT22;21994;48.204;16.516;2023-08-20T02:26:26;19.00;99.90
35894;DHT22;21994;48.204;16.516;2023-08-20T02:28:52;19.00;99.90
35894;DHT22;21994;48.204;16.516;2023-08-20T02:31:18;19.00;99.90
35894;DHT22;21994;48.204;16.516;2023-08-20T02:33:43;19.00;99.90
35894;DHT22;21994;48.204;16.516;2023-08-20T02:36:09;19.00;99.90
35894;DHT22;21994;48.204;16.516;2023-08-20T02:38:35;19.00;99.90
35894;DHT22;21994;48.204;16.516;2023-08-20T02:41:01;19.00;99.90
35894;DHT22;21994;48.204;16.516;2023-08-20T02:43:28;18.90;99.90
35894;DHT22;21994;48.204;16.516;2023-08-20T02:45:54;18.80;99.90
35894;DHT22;21994;48.204;16.516;2023-08-20T02:48:20;18.90;99.90
35894;DHT22;21994;48.204;16.516;2023-08-20T02:50:46;18.90;99.90
35894;DHT22;21994;48.204;16.516;2023-08-20T02:53:11;18.90;99.90
35894;DHT22;21994;48.204;16.516;2023-08-20T02:55:37;18.80;99.90
35894;DHT22;21994;48.204;16.516;2023-08-20T02:58:03;18.70;99.90
35894;DHT22;21994;48.204;16.516;2023-08-20T03:00:29;18.90;99.90
35894;DHT22;21994;48.204;16.516;2023-08-20T03:02:55;18.90;99.90
35894;DHT22;21994;48.204;16.516;2023-08-20T03:05:22;18.90;99.90
35894;DHT22;21994;48.204;16.516;2023-08-20T03:07:48;18.90;99.90
35894;DHT22;21994;48.204;16.516;2023-08-20T03:10:14;18.80;99.90
35894;DHT22;21994;48.204;16.516;2023-08-20T03:12:40;18.70;99.90
35894;DHT22;21994;48.204;16.516;2023-08-20T03:15:06;18.70;99.90
35894;DHT22;21994;48.204;16.516;2023-08-20T03:17:32;18.70;99.90
35894;DHT22;21994;48.204;16.516;2023-08-20T03:19:58;18.70;99.90
35894;DHT22;21994;48.204;16.516;2023-08-20T03:22:25;18.70;99.90
35894;DHT22;21994;48.204;16.516;2023-08-20T03:24:51;18.70;99.90
35894;DHT22;21994;48.204;16.516;2023-08-20T03:27:18;18.70;99.90
35894;DHT22;21994;48.204;16.516;2023-08-20T03:29:43;18.70;99.90
35894;DHT22;21994;48.204;16.516;2023-08-20T03:32:10;18.70;99.90
35894;DHT22;21994;48.204;16.516;2023-08-20T03:34:35;18.60;99.90
35894;DHT22;21994;48.204;16.516;2023-08-20T03:37:10;18.60;99.90
35894;DHT22;21994;48.204;16.516;2023-08-20T03:39:36;18.60;99.90
35894;DHT22;21994;48.204;16.516;2023-08-20T03:42:02;18.70;99.90
35894;DHT22;21994;48.204;16.516;2023-08-20T03:44:28;18.60;99.90
35894;DHT22;21994;48.204;16.516;2023-08-20T03:46:55;18.60;99.90
35894;DHT22;21994;48.204;16.516;2023-08-20T03:49:21;18.60;99.90
35894;DHT22;21994;48.204;16.516;2023-08-20T03:51:47;18.70;99.90
35894;DHT22;21994;48.204;16.516;2023-08-20T03:54:13;18.60;99.90
35894;DHT22;21994;48.204;16.516;2023-08-20T03:56:39;18.60;99.90
35894;DHT22;21994;48.204;16.516;2023-08-20T03:59:04;18.60;99.90
35894;DHT22;21994;48.204;16.516;2023-08-20T04:01:30;18.60;99.90
35894;DHT22;21994;48.204;16.516;2023-08-20T04:03:56;18.60;99.90
35894;DHT22;21994;48.204;16.516;2023-08-20T04:06:22;18.50;99.90
35894;DHT22;21994;48.204;16.516;2023-08-20T04:08:48;18.50;99.90
35894;DHT22;21994;48.204;16.516;2023-08-20T04:11:14;18.50;99.90
35894;DHT22;21994;48.204;16.516;2023-08-20T04:13:40;18.50;99.90
35894;DHT22;21994;48.204;16.516;2023-08-20T04:16:08;18.50;99.90
35894;DHT22;21994;48.204;16.516;2023-08-20T04:18:34;18.50;99.90
35894;DHT22;21994;48.204;16.516;2023-08-20T04:21:00;18.60;99.90
35894;DHT22;21994;48.204;16.516;2023-08-20T04:23:26;18.70;99.90
35894;DHT22;21994;48.204;16.516;2023-08-20T04:25:51;18.80;99.90
35894;DHT22;21994;48.204;16.516;2023-08-20T04:28:17;18.80;99.90
35894;DHT22;21994;48.204;16.516;2023-08-20T04:30:43;18.80;99.90
35894;DHT22;21994;48.204;16.516;2023-08-20T04:33:18;18.90;99.90
35894;DHT22;21994;48.204;16.516;2023-08-20T04:35:44;18.90;99.90
35894;DHT22;21994;48.204;16.516;2023-08-20T04:38:10;18.90;99.90
35894;DHT22;21994;48.204;16.516;2023-08-20T04:40:35;18.90;99.90
35894;DHT22;21994;48.204;16.516;2023-08-20T04:43:01;18.90;99.90
35894;DHT22;21994;48.204;16.516;2023-08-20T04:45:27;18.90;99.90
35894;DHT22;21994;48.204;16.516;2023-08-20T04:48:02;18.90;99.90
35894;DHT22;21994;48.204;16.516;2023-08-20T04:50:28;18.90;99.90
35894;DHT22;21994;48.204;16.516;2023-08-20T04:52:53;19.00;99.90
35894;DHT22;21994;48.204;16.516;2023-08-20T04:55:20;19.00;99.90
35894;DHT22;21994;48.204;16.516;2023-08-20T04:57:45;19.10;99.90
35894;DHT22;21994;48.204;16.516;2023-08-20T05:00:11;19.10;99.90
35894;DHT22;21994;48.204;16.516;2023-08-20T05:02:40;19.20;99.90
35894;DHT22;21994;48.204;16.516;2023-08-20T05:05:06;19.30;99.90
35894;DHT22;21994;48.204;16.516;2023-08-20T05:07:32;19.30;99.90
35894;DHT22;21994;48.204;16.516;2023-08-20T05:09:57;19.40;99.90
35894;DHT22;21994;48.204;16.516;2023-08-20T05:12:23;19.50;99.90
35894;DHT22;21994;48.204;16.516;2023-08-20T05:14:49;19.60;99.90
35894;DHT22;21994;48.204;16.516;2023-08-20T05:17:15;19.60;99.90
35894;DHT22;21994;48.204;16.516;2023-08-20T05:19:40;19.70;99.90
35894;DHT22;21994;48.204;16.516;2023-08-20T05:22:06;19.80;99.90
35894;DHT22;21994;48.204;16.516;2023-08-20T05:24:32;19.90;99.90
35894;DHT22;21994;48.204;16.516;2023-08-20T05:27:13;20.00;99.90
35894;DHT22;21994;48.204;16.516;2023-08-20T05:29:42;20.10;99.90
35894;DHT22;21994;48.204;16.516;2023-08-20T05:32:08;20.30;99.90
35894;DHT22;21994;48.204;16.516;2023-08-20T05:34:34;20.40;99.90
35894;DHT22;21994;48.204;16.516;2023-08-20T05:37:00;20.60;99.90
35894;DHT22;21994;48.204;16.516;2023-08-20T05:39:26;20.60;99.90
35894;DHT22;21994;48.204;16.516;2023-08-20T05:41:52;20.70;99.90
35894;DHT22;21994;48.204;16.516;2023-08-20T05:44:21;20.70;99.90
35894;DHT22;21994;48.204;16.516;2023-08-20T05:46:47;20.80;99.90
35894;DHT22;21994;48.204;16.516;2023-08-20T05:49:13;20.80;99.90
35894;DHT22;21994;48.204;16.516;2023-08-20T05:51:44;20.90;99.90
35894;DHT22;21994;48.204;16.516;2023-08-20T05:54:10;21.00;99.90
35894;DHT22;21994;48.204;16.516;2023-08-20T05:56:36;21.10;99.90
35894;DHT22;21994;48.204;16.516;2023-08-20T05:59:02;21.20;99.90
35894;DHT22;21994;48.204;16.516;2023-08-20T06:01:28;21.30;99.90
35894;DHT22;21994;48.204;16.516;2023-08-20T06:03:54;21.40;99.90
35894;DHT22;21994;48.204;16.516;2023-08-20T06:06:20;21.50;99.90
35894;DHT22;21994;48.204;16.516;2023-08-20T06:08:46;21.60;99.90
35894;DHT22;21994;48.204;16.516;2023-08-20T06:11:12;21.60;99.90
35894;DHT22;21994;48.204;16.516;2023-08-20T06:13:38;21.60;99.90
35894;DHT22;21994;48.204;16.516;2023-08-20T06:16:03;21.70;99.90
35894;DHT22;21994;48.204;16.516;2023-08-20T06:18:30;21.80;99.90
35894;DHT22;21994;48.204;16.516;2023-08-20T06:20:55;21.80;99.90
35894;DHT22;21994;48.204;16.516;2023-08-20T06:23:21;21.90;99.90
35894;DHT22;21994;48.204;16.516;2023-08-20T06:25:47;22.00;99.90
35894;DHT22;21994;48.204;16.516;2023-08-20T06:28:12;22.10;99.90
35894;DHT22;21994;48.204;16.516;2023-08-20T06:30:38;22.10;99.90
35894;DHT22;21994;48.204;16.516;2023-08-20T06:33:04;22.20;99.90
35894;DHT22;21994;48.204;16.516;2023-08-20T06:35:30;22.30;99.90
35894;DHT22;21994;48.204;16.516;2023-08-20T06:37:55;22.40;99.90
35894;DHT22;21994;48.204;16.516;2023-08-20T06:40:21;22.50;99.90
35894;DHT22;21994;48.204;16.516;2023-08-20T06:42:47;22.60;99.90
35894;DHT22;21994;48.204;16.516;2023-08-20T06:45:13;22.60;99.90
35894;DHT22;21994;48.204;16.516;2023-08-20T06:47:39;22.80;99.90
35894;DHT22;21994;48.204;16.516;2023-08-20T06:50:04;22.90;99.90
35894;DHT22;21994;48.204;16.516;2023-08-20T06:52:31;23.10;99.90
35894;DHT22;21994;48.204;16.516;2023-08-20T06:54:57;23.40;99.90
35894;DHT22;21994;48.204;16.516;2023-08-20T06:57:23;23.40;99.90
35894;DHT22;21994;48.204;16.516;2023-08-20T06:59:48;23.50;99.90
35894;DHT22;21994;48.204;16.516;2023-08-20T07:02:14;23.40;99.90
35894;DHT22;21994;48.204;16.516;2023-08-20T07:04:40;23.50;99.90
35894;DHT22;21994;48.204;16.516;2023-08-20T07:07:06;23.60;99.90
35894;DHT22;21994;48.204;16.516;2023-08-20T07:09:31;23.70;99.90
35894;DHT22;21994;48.204;16.516;2023-08-20T07:11:57;23.80;99.90
35894;DHT22;21994;48.204;16.516;2023-08-20T07:14:23;24.00;99.90
35894;DHT22;21994;48.204;16.516;2023-08-20T07:16:48;24.10;99.90
35894;DHT22;21994;48.204;16.516;2023-08-20T07:19:14;24.40;99.90
35894;DHT22;21994;48.204;16.516;2023-08-20T07:21:40;24.40;99.90
35894;DHT22;21994;48.204;16.516;2023-08-20T07:24:06;24.50;99.90
35894;DHT22;21994;48.204;16.516;2023-08-20T07:26:32;24.70;99.90
35894;DHT22;21994;48.204;16.516;2023-08-20T07:28:57;25.10;99.90
35894;DHT22;21994;48.204;16.516;2023-08-20T07:31:30;25.40;99.90
35894;DHT22;21994;48.204;16.516;2023-08-20T07:33:58;25.50;99.90
35894;DHT22;21994;48.204;16.516;2023-08-20T07:36:24;25.60;99.90
35894;DHT22;21994;48.204;16.516;2023-08-20T07:38:51;25.80;99.90
35894;DHT22;21994;48.204;16.516;2023-08-20T07:41:17;26.10;99.90
35894;DHT22;21994;48.204;16.516;2023-08-20T07:43:45;26.40;99.90
35894;DHT22;21994;48.204;16.516;2023-08-20T07:46:11;26.90;99.90
35894;DHT22;21994;48.204;16.516;2023-08-20T07:48:37;27.20;99.90
35894;DHT22;21994;48.204;16.516;2023-08-20T07:51:02;27.50;99.90
35894;DHT22;21994;48.204;16.516;2023-08-20T07:53:28;27.90;99.90
35894;DHT22;21994;48.204;16.516;2023-08-20T07:55:55;28.20;99.90
35894;DHT22;21994;48.204;16.516;2023-08-20T07:58:21;28.40;99.90
35894;DHT22;21994;48.204;16.516;2023-08-20T08:00:47;28.70;99.90
35894;DHT22;21994;48.204;16.516;2023-08-20T08:03:13;28.70;99.90
35894;DHT22;21994;48.204;16.516;2023-08-20T08:05:46;28.80;99.90
35894;DHT22;21994;48.204;16.516;2023-08-20T08:08:19;29.00;99.90
35894;DHT22;21994;48.204;16.516;2023-08-20T08:10:45;29.40;99.90
35894;DHT22;21994;48.204;16.516;2023-08-20T08:13:16;29.60;99.90
35894;DHT22;21994;48.204;16.516;2023-08-20T08:15:43;29.70;99.90
35894;DHT22;21994;48.204;16.516;2023-08-20T08:18:09;29.90;99.90
35894;DHT22;21994;48.204;16.516;2023-08-20T08:20:35;30.00;99.90
35894;DHT22;21994;48.204;16.516;2023-08-20T08:23:01;30.30;99.90
35894;DHT22;21994;48.204;16.516;2023-08-20T08:25:27;30.60;99.90
35894;DHT22;21994;48.204;16.516;2023-08-20T08:27:52;30.80;99.90
35894;DHT22;21994;48.204;16.516;2023-08-20T08:30:18;31.20;99.90
35894;DHT22;21994;48.204;16.516;2023-08-20T08:32:44;31.40;99.90
35894;DHT22;21994;48.204;16.516;2023-08-20T08:35:10;31.40;99.80
35894;DHT22;21994;48.204;16.516;2023-08-20T08:37:36;31.50;99.90
35894;DHT22;21994;48.204;16.516;2023-08-20T08:40:02;31.70;99.60
35894;DHT22;21994;48.204;16.516;2023-08-20T08:42:32;32.10;99.50
35894;DHT22;21994;48.204;16.516;2023-08-20T08:45:01;32.30;98.00
35894;DHT22;21994;48.204;16.516;2023-08-20T08:47:29;32.60;99.00
35894;DHT22;21994;48.204;16.516;2023-08-20T08:49:55;33.00;98.10
35894;DHT22;21994;48.204;16.516;2023-08-20T08:52:22;32.90;98.10
35894;DHT22;21994;48.204;16.516;2023-08-20T08:54:48;33.20;96.40
35894;DHT22;21994;48.204;16.516;2023-08-20T08:57:14;33.10;97.00
35894;DHT22;21994;48.204;16.516;2023-08-20T08:59:41;33.30;96.30
35894;DHT22;21994;48.204;16.516;2023-08-20T09:02:07;33.40;97.80
35894;DHT22;21994;48.204;16.516;2023-08-20T09:04:34;33.70;96.60
35894;DHT22;21994;48.204;16.516;2023-08-20T09:07:02;33.70;96.10
35894;DHT22;21994;48.204;16.516;2023-08-20T09:09:29;33.80;97.00
35894;DHT22;21994;48.204;16.516;2023-08-20T09:11:55;33.80;95.70
35894;DHT22;21994;48.204;16.516;2023-08-20T09:14:21;33.70;95.30
35894;DHT22;21994;48.204;16.516;2023-08-20T09:17:00;34.10;95.10
35894;DHT22;21994;48.204;16.516;2023-08-20T09:19:30;34.60;94.30
35894;DHT22;21994;48.204;16.516;2023-08-20T09:22:00;34.80;94.30
35894;DHT22;21994;48.204;16.516;2023-08-20T09:24:31;35.10;92.60
35894;DHT22;21994;48.204;16.516;2023-08-20T09:26:59;35.10;95.50
35894;DHT22;21994;48.204;16.516;2023-08-20T09:29:25;35.50;93.60
35894;DHT22;21994;48.204;16.516;2023-08-20T09:31:51;35.80;92.30
35894;DHT22;21994;48.204;16.516;2023-08-20T09:34:35;35.70;92.90
35894;DHT22;21994;48.204;16.516;2023-08-20T09:37:01;35.30;91.60
35894;DHT22;21994;48.204;16.516;2023-08-20T09:43:08;35.70;91.80
35894;DHT22;21994;48.204;16.516;2023-08-20T09:45:35;36.60;91.00
35894;DHT22;21994;48.204;16.516;2023-08-20T09:48:02;36.90;89.70
35894;DHT22;21994;48.204;16.516;2023-08-20T09:50:31;36.80;90.40
35894;DHT22;21994;48.204;16.516;2023-08-20T09:53:12;36.60;90.80
35894;DHT22;21994;48.204;16.516;2023-08-20T09:55:42;37.10;89.50
35894;DHT22;21994;48.204;16.516;2023-08-20T09:58:09;37.40;89.20
35894;DHT22;21994;48.204;16.516;2023-08-20T10:00:36;37.80;90.40
35894;DHT22;21994;48.204;16.516;2023-08-20T10:03:01;37.90;89.60
35894;DHT22;21994;48.204;16.516;2023-08-20T10:05:28;37.90;88.20
35894;DHT22;21994;48.204;16.516;2023-08-20T10:07:54;38.40;88.40
35894;DHT22;21994;48.204;16.516;2023-08-20T10:10:21;38.30;87.70
35894;DHT22;21994;48.204;16.516;2023-08-20T10:12:46;38.50;87.40
35894;DHT22;21994;48.204;16.516;2023-08-20T10:15:14;38.20;85.00
35894;DHT22;21994;48.204;16.516;2023-08-20T10:17:41;39.10;83.90
35894;DHT22;21994;48.204;16.516;2023-08-20T10:20:07;39.50;80.30
35894;DHT22;21994;48.204;16.516;2023-08-20T10:22:37;39.50;77.90
35894;DHT22;21994;48.204;16.516;2023-08-20T10:25:29;39.10;81.20
35894;DHT22;21994;48.204;16.516;2023-08-20T10:28:10;38.90;79.30
35894;DHT22;21994;48.204;16.516;2023-08-20T10:30:37;39.10;80.00
35894;DHT22;21994;48.204;16.516;2023-08-20T10:33:02;39.10;79.20
35894;DHT22;21994;48.204;16.516;2023-08-20T10:35:46;39.20;81.70
35894;DHT22;21994;48.204;16.516;2023-08-20T10:38:16;39.40;79.00
35894;DHT22;21994;48.204;16.516;2023-08-20T10:40:52;38.50;79.60
35894;DHT22;21994;48.204;16.516;2023-08-20T10:43:28;39.00;76.90
35894;DHT22;21994;48.204;16.516;2023-08-20T10:46:07;39.10;78.20
35894;DHT22;21994;48.204;16.516;2023-08-20T10:48:39;39.50;78.00
35894;DHT22;21994;48.204;16.516;2023-08-20T10:53:38;39.70;77.50
35894;DHT22;21994;48.204;16.516;2023-08-20T10:56:13;39.40;79.50
35894;DHT22;21994;48.204;16.516;2023-08-20T10:58:40;39.10;76.60
35894;DHT22;21994;48.204;16.516;2023-08-20T11:01:20;40.00;72.20
35894;DHT22;21994;48.204;16.516;2023-08-20T11:03:50;39.60;73.00
35894;DHT22;21994;48.204;16.516;2023-08-20T11:06:17;39.50;72.50
35894;DHT22;21994;48.204;16.516;2023-08-20T11:08:43;39.50;71.90
35894;DHT22;21994;48.204;16.516;2023-08-20T11:11:09;40.40;70.40
35894;DHT22;21994;48.204;16.516;2023-08-20T11:13:36;39.40;73.10
35894;DHT22;21994;48.204;16.516;2023-08-20T11:16:02;39.20;71.60
35894;DHT22;21994;48.204;16.516;2023-08-20T11:18:29;39.30;73.00
35894;DHT22;21994;48.204;16.516;2023-08-20T11:20:56;39.80;71.40
35894;DHT22;21994;48.204;16.516;2023-08-20T11:23:22;39.30;70.40
35894;DHT22;21994;48.204;16.516;2023-08-20T11:25:48;38.30;72.10
35894;DHT22;21994;48.204;16.516;2023-08-20T11:28:13;38.00;72.80
35894;DHT22;21994;48.204;16.516;2023-08-20T11:30:39;38.00;75.40
35894;DHT22;21994;48.204;16.516;2023-08-20T11:33:05;37.60;74.40
35894;DHT22;21994;48.204;16.516;2023-08-20T11:35:31;37.40;73.00
35894;DHT22;21994;48.204;16.516;2023-08-20T11:38:08;37.30;76.00
35894;DHT22;21994;48.204;16.516;2023-08-20T11:40:35;37.20;77.00
35894;DHT22;21994;48.204;16.516;2023-08-20T11:43:01;37.20;75.50
35894;DHT22;21994;48.204;16.516;2023-08-20T11:45:27;37.00;73.20
35894;DHT22;21994;48.204;16.516;2023-08-20T11:47:56;36.80;72.10
35894;DHT22;21994;48.204;16.516;2023-08-20T11:50:23;36.70;77.40
35894;DHT22;21994;48.204;16.516;2023-08-20T11:52:49;36.60;72.60
35894;DHT22;21994;48.204;16.516;2023-08-20T11:55:24;36.50;77.10
35894;DHT22;21994;48.204;16.516;2023-08-20T11:57:53;36.70;74.30
35894;DHT22;21994;48.204;16.516;2023-08-20T12:00:25;36.70;74.50
35894;DHT22;21994;48.204;16.516;2023-08-20T12:02:53;36.50;74.40
35894;DHT22;21994;48.204;16.516;2023-08-20T12:05:20;36.50;74.00
35894;DHT22;21994;48.204;16.516;2023-08-20T12:07:54;36.70;77.70
35894;DHT22;21994;48.204;16.516;2023-08-20T12:10:28;36.80;75.40
35894;DHT22;21994;48.204;16.516;2023-08-20T12:12:56;36.90;76.50
35894;DHT22;21994;48.204;16.516;2023-08-20T12:15:22;37.00;75.50
35894;DHT22;21994;48.204;16.516;2023-08-20T12:18:02;36.90;74.50
35894;DHT22;21994;48.204;16.516;2023-08-20T12:20:32;37.20;77.00
35894;DHT22;21994;48.204;16.516;2023-08-20T12:22:59;37.30;71.20
35894;DHT22;21994;48.204;16.516;2023-08-20T12:25:29;37.40;73.80
35894;DHT22;21994;48.204;16.516;2023-08-20T12:27:56;37.30;73.20
35894;DHT22;21994;48.204;16.516;2023-08-20T12:30:21;37.40;76.90
35894;DHT22;21994;48.204;16.516;2023-08-20T12:32:47;36.70;74.70
35894;DHT22;21994;48.204;16.516;2023-08-20T12:35:13;36.30;76.80
35894;DHT22;21994;48.204;16.516;2023-08-20T12:37:39;36.30;75.70
35894;DHT22;21994;48.204;16.516;2023-08-20T12:40:05;36.50;76.20
35894;DHT22;21994;48.204;16.516;2023-08-20T12:42:36;36.40;75.50
35894;DHT22;21994;48.204;16.516;2023-08-20T12:45:04;36.70;74.10
35894;DHT22;21994;48.204;16.516;2023-08-20T12:47:31;36.90;73.00
35894;DHT22;21994;48.204;16.516;2023-08-20T12:49:57;37.20;72.30
35894;DHT22;21994;48.204;16.516;2023-08-20T12:52:22;37.10;71.40
35894;DHT22;21994;48.204;16.516;2023-08-20T12:54:48;37.60;76.50
35894;DHT22;21994;48.204;16.516;2023-08-20T12:57:14;37.70;70.30
35894;DHT22;21994;48.204;16.516;2023-08-20T12:59:39;37.80;70.90
35894;DHT22;21994;48.204;16.516;2023-08-20T13:02:05;37.80;75.50
35894;DHT22;21994;48.204;16.516;2023-08-20T13:04:31;38.10;71.80
35894;DHT22;21994;48.204;16.516;2023-08-20T13:06:57;37.90;70.00
35894;DHT22;21994;48.204;16.516;2023-08-20T13:09:23;38.30;73.60
35894;DHT22;21994;48.204;16.516;2023-08-20T13:11:49;38.20;72.50
35894;DHT22;21994;48.204;16.516;2023-08-20T13:14:15;38.40;72.20
35894;DHT22;21994;48.204;16.516;2023-08-20T13:16:41;38.10;71.10
35894;DHT22;21994;48.204;16.516;2023-08-20T13:19:07;37.60;71.00
35894;DHT22;21994;48.204;16.516;2023-08-20T13:21:33;37.40;72.90
35894;DHT22;21994;48.204;16.516;2023-08-20T13:23:58;37.20;73.40
35894;DHT22;21994;48.204;16.516;2023-08-20T13:26:24;37.00;74.50
35894;DHT22;21994;48.204;16.516;2023-08-20T13:28:50;36.80;74.70
35894;DHT22;21994;48.204;16.516;2023-08-20T13:31:15;36.70;74.70
35894;DHT22;21994;48.204;16.516;2023-08-20T13:33:41;36.40;77.40
35894;DHT22;21994;48.204;16.516;2023-08-20T13:36:07;36.10;76.60
35894;DHT22;21994;48.204;16.516;2023-08-20T13:38:33;35.70;73.50
35894;DHT22;21994;48.204;16.516;2023-08-20T13:40:59;35.30;74.60
35894;DHT22;21994;48.204;16.516;2023-08-20T13:43:25;34.80;76.70
35894;DHT22;21994;48.204;16.516;2023-08-20T13:45:51;34.30;77.60
35894;DHT22;21994;48.204;16.516;2023-08-20T13:48:16;34.10;77.90
35894;DHT22;21994;48.204;16.516;2023-08-20T13:50:42;33.80;77.00
35894;DHT22;21994;48.204;16.516;2023-08-20T13:53:08;33.90;77.30
35894;DHT22;21994;48.204;16.516;2023-08-20T13:55:35;34.50;79.10
35894;DHT22;21994;48.204;16.516;2023-08-20T13:58:01;35.20;73.10
35894;DHT22;21994;48.204;16.516;2023-08-20T14:00:27;35.80;72.10
35894;DHT22;21994;48.204;16.516;2023-08-20T14:02:52;36.70;75.90
35894;DHT22;21994;48.204;16.516;2023-08-20T14:05:18;37.40;72.10
35894;DHT22;21994;48.204;16.516;2023-08-20T14:07:44;38.00;65.50
35894;DHT22;21994;48.204;16.516;2023-08-20T14:10:10;38.00;69.90
35894;DHT22;21994;48.204;16.516;2023-08-20T14:12:36;38.30;66.90
35894;DHT22;21994;48.204;16.516;2023-08-20T14:15:02;38.40;67.50
35894;DHT22;21994;48.204;16.516;2023-08-20T14:17:28;38.20;63.20
35894;DHT22;21994;48.204;16.516;2023-08-20T14:19:55;38.00;68.40
35894;DHT22;21994;48.204;16.516;2023-08-20T14:22:21;37.90;64.40
35894;DHT22;21994;48.204;16.516;2023-08-20T14:24:47;37.70;65.00
35894;DHT22;21994;48.204;16.516;2023-08-20T14:27:13;37.50;70.50
35894;DHT22;21994;48.204;16.516;2023-08-20T14:29:40;37.60;69.30
35894;DHT22;21994;48.204;16.516;2023-08-20T14:32:06;37.60;67.10
35894;DHT22;21994;48.204;16.516;2023-08-20T14:34:31;37.70;65.80
35894;DHT22;21994;48.204;16.516;2023-08-20T14:36:57;38.10;65.00
35894;DHT22;21994;48.204;16.516;2023-08-20T14:39:23;38.20;65.80
35894;DHT22;21994;48.204;16.516;2023-08-20T14:41:49;38.30;66.10
35894;DHT22;21994;48.204;16.516;2023-08-20T14:44:15;38.00;67.10
35894;DHT22;21994;48.204;16.516;2023-08-20T14:46:41;38.00;61.80
35894;DHT22;21994;48.204;16.516;2023-08-20T14:49:06;38.10;66.80
35894;DHT22;21994;48.204;16.516;2023-08-20T14:51:32;38.60;61.60
35894;DHT22;21994;48.204;16.516;2023-08-20T14:53:59;39.00;64.30
35894;DHT22;21994;48.204;16.516;2023-08-20T14:56:25;38.50;64.20
35894;DHT22;21994;48.204;16.516;2023-08-20T14:58:51;38.10;62.10
35894;DHT22;21994;48.204;16.516;2023-08-20T15:01:17;37.60;65.50
35894;DHT22;21994;48.204;16.516;2023-08-20T15:03:43;37.00;63.10
35894;DHT22;21994;48.204;16.516;2023-08-20T15:06:09;36.30;64.50
35894;DHT22;21994;48.204;16.516;2023-08-20T15:08:35;36.10;65.80
35894;DHT22;21994;48.204;16.516;2023-08-20T15:11:01;35.90;67.20
35894;DHT22;21994;48.204;16.516;2023-08-20T15:13:32;35.40;67.30
35894;DHT22;21994;48.204;16.516;2023-08-20T15:15:58;35.30;67.60
35894;DHT22;21994;48.204;16.516;2023-08-20T15:18:24;35.40;69.10
35894;DHT22;21994;48.204;16.516;2023-08-20T15:20:54;35.60;69.00
35894;DHT22;21994;48.204;16.516;2023-08-20T15:23:20;35.40;68.30
35894;DHT22;21994;48.204;16.516;2023-08-20T15:25:47;35.60;68.20
35894;DHT22;21994;48.204;16.516;2023-08-20T15:28:13;35.50;68.60
35894;DHT22;21994;48.204;16.516;2023-08-20T15:30:38;35.40;69.90